Time;durP1;ratioP1;P1;durP2;ratioP2;P2;SDS_P1;SDS_P2;PMS_P1;PMS_P2;Temp;Humidity;BMP_temperature;BMP_pressure;BME280_temperature;BME280_humidity;BME280_pressure;Samples;Min_cycle;Max_cycle;Signal;HPM_P1;HPM_P2
2019/12/11 00:01:38;;;;;;;18.9;9.7;;;;;;;-0.03;91.26465;964.9395;;;;
2019/12/11 00:04:03;;;;;;;19.2;10;;;;;;;-0.02;91.39063;964.9433;;;;
2019/12/11 00:06:28;;;;;;;16.2;9.9;;;;;;;-0.05;91.64258;964.8394;;;;
2019/12/11 00:08:53;;;;;;;19.6;11.1;;;;;;;-0.11;91.58398;964.8159;;;;
2019/12/11 00:11:19;;;;;;;18.6;10.5;;;;;;;0.09;91.15723;964.7363;;;;
2019/12/11 00:13:44;;;;;;;19.5;10.7;;;;;;;-0.02;91.57031;964.6624;;;;
2019/12/11 00:16:19;;;;;;;17.5;10;;;;;;;-0.02;91.01953;964.5995;;;;
2019/12/11 00:20:12;;;;;;;20.1;11.2;;;;;;;-0.08;91.45703;964.5131;;;;
2019/12/11 00:23:25;;;;;;;23.3;12.3;;;;;;;0.04;90.96582;964.4306;;;;
2019/12/11 00:25:53;;;;;;;22.1;12.7;;;;;;;-0.07;92.75;964.3544;;;;
2019/12/11 00:28:15;;;;;;;22.1;12.7;;;;;;;-0.22;91.21289;964.3201;;;;
2019/12/11 00:30:40;;;;;;;23.1;12.9;;;;;;;-0.53;93.66992;964.2193;;;;
2019/12/11 00:33:06;;;;;;;22.5;12.5;;;;;;;-0.47;93.16602;964.2191;;;;
2019/12/11 00:35:31;;;;;;;24.2;12.6;;;;;;;-0.4;93.29199;964.1662;;;;
2019/12/11 00:37:56;;;;;;;23.1;13;;;;;;;-0.42;92.47168;964.1028;;;;
2019/12/11 00:40:21;;;;;;;22;12.5;;;;;;;-0.31;91.82227;964.0513;;;;
2019/12/11 00:42:47;;;;;;;21.7;11.9;;;;;;;-0.65;93.1377;964.0045;;;;
2019/12/11 00:45:12;;;;;;;19.1;10.8;;;;;;;-0.56;92.37109;963.9545;;;;
2019/12/11 00:47:37;;;;;;;21.8;11.8;;;;;;;-0.71;92.97852;963.9299;;;;
2019/12/11 00:50:02;;;;;;;20.1;11.5;;;;;;;-0.75;93.2168;963.8818;;;;
2019/12/11 00:52:27;;;;;;;20;11.5;;;;;;;-0.69;93.10547;963.7797;;;;
2019/12/11 00:54:52;;;;;;;19.8;12.2;;;;;;;-0.87;94.66797;963.753;;;;
2019/12/11 00:57:18;;;;;;;19.9;11.8;;;;;;;-0.68;94.41016;963.6951;;;;
2019/12/11 00:59:43;;;;;;;21.7;11.5;;;;;;;-0.71;94.77148;963.6428;;;;
2019/12/11 01:02:08;;;;;;;23.2;12.5;;;;;;;-1;94.71875;963.57;;;;
2019/12/11 01:04:33;;;;;;;18.4;10.8;;;;;;;-0.67;94.15234;963.5147;;;;
2019/12/11 01:06:58;;;;;;;19.3;11;;;;;;;-0.58;92.83984;963.4548;;;;
2019/12/11 01:09:23;;;;;;;19.4;11.6;;;;;;;-0.91;94.16699;963.4915;;;;
2019/12/11 01:11:49;;;;;;;21.7;11.4;;;;;;;-0.96;95.06445;963.4252;;;;
2019/12/11 01:14:15;;;;;;;25.3;14.2;;;;;;;-0.81;94.69336;963.3791;;;;
2019/12/11 01:21:30;;;;;;;19.1;11.2;;;;;;;-1.05;94.80664;963.2842;;;;
2019/12/11 01:23:55;;;;;;;21.6;11.8;;;;;;;-1;94.50586;963.3166;;;;
2019/12/11 01:26:20;;;;;;;18.2;11.2;;;;;;;-0.86;94.1543;963.3019;;;;
2019/12/11 01:28:46;;;;;;;17.9;10.4;;;;;;;-0.8;93.39551;963.2469;;;;
2019/12/11 01:31:12;;;;;;;17.7;10.5;;;;;;;-0.84;93.63184;963.2296;;;;
2019/12/11 01:33:37;;;;;;;17.5;10.8;;;;;;;-0.92;93.7041;963.1611;;;;
2019/12/11 01:36:02;;;;;;;20;11;;;;;;;-1.1;94.04492;963.1319;;;;
2019/12/11 01:38:27;;;;;;;19.9;12;;;;;;;-1.25;95.37793;963.176;;;;
2019/12/11 01:40:52;;;;;;;19.5;10.7;;;;;;;-0.94;94.36328;963.1407;;;;
2019/12/11 01:43:17;;;;;;;18.3;10.6;;;;;;;-1.1;94.5166;963.0698;;;;
2019/12/11 01:45:42;;;;;;;21.7;11.1;;;;;;;-1.2;94.88477;963.093;;;;
2019/12/11 01:48:08;;;;;;;20.1;11.1;;;;;;;-1.2;94.16992;963.03;;;;
2019/12/11 01:50:33;;;;;;;19.4;11.4;;;;;;;-1.17;95.06055;963.0151;;;;
2019/12/11 01:52:59;;;;;;;23;11.8;;;;;;;-1.11;96.31836;962.9631;;;;
2019/12/11 01:55:24;;;;;;;21;12.2;;;;;;;-1.28;94.87793;962.9766;;;;
2019/12/11 01:57:49;;;;;;;20.5;12.4;;;;;;;-1.19;95.09961;962.9283;;;;
2019/12/11 02:00:18;;;;;;;17.9;11.4;;;;;;;-1.17;94.60156;962.9039;;;;
2019/12/11 02:02:55;;;;;;;20.9;10.8;;;;;;;-1.11;93.03516;962.8767;;;;
2019/12/11 02:05:04;;;;;;;17.5;11;;;;;;;-1.24;94.09277;962.848;;;;
2019/12/11 02:07:29;;;;;;;18.4;10.7;;;;;;;-1.25;94.11328;962.7751;;;;
2019/12/11 02:09:54;;;;;;;17.9;10.7;;;;;;;-1.25;94.42676;962.7863;;;;
2019/12/11 02:12:19;;;;;;;14.1;9.8;;;;;;;-1.29;94.42773;962.7017;;;;
2019/12/11 02:14:45;;;;;;;13.7;9.3;;;;;;;-1.29;93.57715;962.6921;;;;
2019/12/11 02:17:10;;;;;;;17;9.6;;;;;;;-1.16;93.88477;962.6442;;;;
2019/12/11 02:19:35;;;;;;;17.4;9.8;;;;;;;-1.32;93.40332;962.5622;;;;
2019/12/11 02:22:00;;;;;;;15.5;8.8;;;;;;;-1.18;93.56934;962.5336;;;;
2019/12/11 02:24:26;;;;;;;15.4;8.6;;;;;;;-0.88;92.32422;962.5178;;;;
2019/12/11 02:26:51;;;;;;;15.7;9;;;;;;;-1.2;92.73535;962.4174;;;;
2019/12/11 02:29:16;;;;;;;13.2;9.2;;;;;;;-1.02;93.17773;962.3719;;;;
2019/12/11 02:31:41;;;;;;;15.6;9.1;;;;;;;-1.22;92.88965;962.3862;;;;
2019/12/11 02:34:07;;;;;;;15.1;9.7;;;;;;;-1.37;94.35352;962.3606;;;;
2019/12/11 02:36:32;;;;;;;18;9.6;;;;;;;-1.37;93.29102;962.2961;;;;
2019/12/11 02:38:58;;;;;;;14.1;9.3;;;;;;;-1.38;93.40234;962.1817;;;;
2019/12/11 02:41:23;;;;;;;15;9.2;;;;;;;-1.35;92.71484;962.1387;;;;
2019/12/11 02:43:49;;;;;;;14.7;9.4;;;;;;;-1.44;92.61426;962.0759;;;;
2019/12/11 02:48:46;;;;;;;14.1;8.9;;;;;;;-1.47;93.30273;961.8872;;;;
2019/12/11 02:52:26;;;;;;;13.9;8.9;;;;;;;-1.39;93.74805;961.8384;;;;
2019/12/11 02:53:32;;;;;;;15.1;8.4;;;;;;;-1.25;92.87109;961.7888;;;;
2019/12/11 02:55:54;;;;;;;15.3;9;;;;;;;-1.48;91.99121;961.7466;;;;
2019/12/11 02:58:19;;;;;;;14;8.3;;;;;;;-1.37;92.22754;961.6824;;;;
2019/12/11 03:00:44;;;;;;;12.4;8.3;;;;;;;-1.19;91.31543;961.6919;;;;
2019/12/11 03:03:10;;;;;;;13.7;8.8;;;;;;;-1.27;90.84082;961.7249;;;;
2019/12/11 03:05:35;;;;;;;13.1;8.4;;;;;;;-1.37;91.33203;961.6331;;;;
2019/12/11 03:08:01;;;;;;;13.5;7.8;;;;;;;-1.4;91.88574;961.5889;;;;
2019/12/11 03:10:26;;;;;;;13.8;8.8;;;;;;;-1.65;92.3457;961.5338;;;;
2019/12/11 03:12:52;;;;;;;14.1;8.1;;;;;;;-1.27;89.85547;961.3826;;;;
2019/12/11 03:15:17;;;;;;;12.4;7.7;;;;;;;-1.41;90.29688;961.3658;;;;
2019/12/11 03:17:42;;;;;;;11.1;7.8;;;;;;;-1.42;90.9082;961.3329;;;;
2019/12/11 03:20:07;;;;;;;13;7.7;;;;;;;-1.33;89.66309;961.3148;;;;
2019/12/11 03:22:33;;;;;;;11.9;7.1;;;;;;;-1.24;89.74902;961.2142;;;;
2019/12/11 03:24:58;;;;;;;12.8;7.3;;;;;;;-1.51;89.28027;961.1648;;;;
2019/12/11 03:27:44;;;;;;;12.4;7.4;;;;;;;-1.48;89.73145;961.1755;;;;
2019/12/11 03:29:49;;;;;;;12;7.4;;;;;;;-1.77;90.59863;961.1088;;;;
2019/12/11 03:32:14;;;;;;;13.3;7.2;;;;;;;-1.56;90.25098;960.9517;;;;
2019/12/11 03:34:39;;;;;;;11.5;7.1;;;;;;;-1.87;91.34863;960.9397;;;;
2019/12/11 03:37:04;;;;;;;12.3;7.3;;;;;;;-1.84;91.73438;960.9053;;;;
2019/12/11 03:39:29;;;;;;;10.6;6.4;;;;;;;-1.7;90.06348;960.932;;;;
2019/12/11 03:41:54;;;;;;;12.5;6.9;;;;;;;-1.78;90.73047;960.9634;;;;
2019/12/11 03:44:19;;;;;;;9.7;6.3;;;;;;;-1.84;90.77246;961.0313;;;;
2019/12/11 03:46:58;;;;;;;9.4;6.2;;;;;;;-1.67;90.64355;961.0511;;;;
2019/12/11 03:49:23;;;;;;;11.6;6.1;;;;;;;-1.59;89.49609;960.9819;;;;
2019/12/11 03:51:48;;;;;;;10.1;5.3;;;;;;;-1.42;88.80273;960.882;;;;
2019/12/11 03:54:13;;;;;;;9.3;5.5;;;;;;;-1.49;87.93945;960.7432;;;;
2019/12/11 03:56:48;;;;;;;10.7;5.8;;;;;;;-1.56;89.41211;960.6903;;;;
2019/12/11 04:02:27;;;;;;;9;5.6;;;;;;;-1.49;87.7041;960.6569;;;;
2019/12/11 04:04:53;;;;;;;9.9;5.8;;;;;;;-1.67;88.91016;960.634;;;;
2019/12/11 04:07:17;;;;;;;9.4;5.6;;;;;;;-1.65;87.82715;960.6822;;;;
2019/12/11 04:09:42;;;;;;;8.9;4.9;;;;;;;-1.53;87.91895;960.6683;;;;
2019/12/11 04:12:07;;;;;;;9.4;5.3;;;;;;;-1.6;87.22363;960.8381;;;;
2019/12/11 04:14:32;;;;;;;8.7;5.2;;;;;;;-1.52;87.12598;960.8275;;;;
2019/12/11 04:16:57;;;;;;;7.6;4.9;;;;;;;-1.29;86.7959;960.7592;;;;
2019/12/11 04:19:22;;;;;;;9.1;5.3;;;;;;;-1.34;85.79785;960.7673;;;;
2019/12/11 04:21:47;;;;;;;9.1;5.1;;;;;;;-1.15;86.08594;960.6475;;;;
2019/12/11 04:24:12;;;;;;;8;5.2;;;;;;;-1.31;85.68262;960.6105;;;;
2019/12/11 04:26:37;;;;;;;9.2;5.5;;;;;;;-1.33;86.17285;960.5853;;;;
2019/12/11 04:29:03;;;;;;;8.1;5.4;;;;;;;-1.34;86.78516;960.5535;;;;
2019/12/11 04:31:28;;;;;;;10.4;5.7;;;;;;;-1.4;86.76074;960.5055;;;;
2019/12/11 04:33:54;;;;;;;8.6;5;;;;;;;-1.54;86.66406;960.516;;;;
2019/12/11 04:36:19;;;;;;;11.5;5.7;;;;;;;-1.44;86.5166;960.4227;;;;
2019/12/11 04:38:44;;;;;;;9.7;5;;;;;;;-1.4;86.13379;960.3139;;;;
2019/12/11 04:41:09;;;;;;;8.8;5.4;;;;;;;-1.5;87.07617;960.308;;;;
2019/12/11 04:43:34;;;;;;;8.8;4.9;;;;;;;-1.49;87.36914;960.2865;;;;
2019/12/11 04:46:02;;;;;;;8.1;5;;;;;;;-1.23;86.12402;960.2408;;;;
2019/12/11 04:48:24;;;;;;;10.1;5.6;;;;;;;-1.48;87.0459;960.2029;;;;
2019/12/11 04:50:53;;;;;;;7.9;5.1;;;;;;;-1.39;86.41602;960.1272;;;;
2019/12/11 04:53:15;;;;;;;9.5;5.1;;;;;;;-1.47;85.80566;960.1614;;;;
2019/12/11 04:55:40;;;;;;;9.6;5;;;;;;;-1.59;87.1582;960.1668;;;;
2019/12/11 04:58:05;;;;;;;8.9;5.1;;;;;;;-1.64;87.02344;960.0831;;;;
2019/12/11 05:00:30;;;;;;;9.2;5.5;;;;;;;-1.74;87.8418;960.0491;;;;
2019/12/11 05:02:55;;;;;;;9.7;5.5;;;;;;;-1.53;86.33203;959.9216;;;;
2019/12/11 05:05:21;;;;;;;11.9;6.2;;;;;;;-1.85;87.70801;959.9454;;;;
2019/12/11 05:07:46;;;;;;;10.7;5.6;;;;;;;-1.49;86.8877;959.926;;;;
2019/12/11 05:10:11;;;;;;;11.7;6;;;;;;;-1.63;87.00293;959.9495;;;;
2019/12/11 05:12:36;;;;;;;10.3;5.4;;;;;;;;;;;;;
2019/12/11 05:15:01;;;;;;;10.7;5.5;;;;;;;;;;;;;
2019/12/11 05:17:26;;;;;;;9.9;6.1;;;;;;;;;;;;;
2019/12/11 05:19:51;;;;;;;9.7;6.2;;;;;;;;;;;;;
2019/12/11 05:22:16;;;;;;;11.6;6.2;;;;;;;;;;;;;
2019/12/11 05:24:41;;;;;;;10.8;6.1;;;;;;;;;;;;;
2019/12/11 05:27:06;;;;;;;11.9;6.5;;;;;;;;;;;;;
2019/12/11 05:29:32;;;;;;;11.3;6.1;;;;;;;;;;;;;
2019/12/11 05:31:57;;;;;;;10.9;6.3;;;;;;;;;;;;;
2019/12/11 05:34:22;;;;;;;7.8;5.3;;;;;;;;;;;;;
2019/12/11 05:36:47;;;;;;;12.6;6.3;;;;;;;;;;;;;
2019/12/11 05:39:12;;;;;;;10.5;6;;;;;;;;;;;;;
2019/12/11 05:41:37;;;;;;;9.6;5.5;;;;;;;;;;;;;
2019/12/11 05:44:02;;;;;;;8.3;5.3;;;;;;;;;;;;;
2019/12/11 05:46:27;;;;;;;9.3;5.8;;;;;;;;;;;;;
2019/12/11 05:48:53;;;;;;;9.4;5.3;;;;;;;;;;;;;
2019/12/11 05:51:18;;;;;;;8.5;5.5;;;;;;;;;;;;;
2019/12/11 05:53:43;;;;;;;8.9;5.3;;;;;;;;;;;;;
2019/12/11 05:56:08;;;;;;;9.9;5.5;;;;;;;;;;;;;
2019/12/11 05:58:33;;;;;;;8.7;5.4;;;;;;;;;;;;;
2019/12/11 06:00:59;;;;;;;7.7;5;;;;;;;;;;;;;
2019/12/11 06:03:24;;;;;;;9.8;5.5;;;;;;;;;;;;;
2019/12/11 06:05:49;;;;;;;10;5.7;;;;;;;;;;;;;
2019/12/11 06:08:14;;;;;;;11;5.5;;;;;;;;;;;;;
2019/12/11 06:10:39;;;;;;;8.6;5.3;;;;;;;;;;;;;
2019/12/11 06:13:04;;;;;;;10.4;5.5;;;;;;;;;;;;;
2019/12/11 06:15:29;;;;;;;9.1;5.6;;;;;;;;;;;;;
2019/12/11 06:17:55;;;;;;;11.3;5.7;;;;;;;;;;;;;
2019/12/11 06:25:14;;;;;;;9;5.5;;;;;;;;;;;;;
2019/12/11 06:27:39;;;;;;;10.1;5.5;;;;;;;;;;;;;
2019/12/11 06:30:04;;;;;;;9.3;5.3;;;;;;;;;;;;;
2019/12/11 06:32:29;;;;;;;9.8;5.2;;;;;;;;;;;;;
2019/12/11 06:34:54;;;;;;;9.8;5.6;;;;;;;;;;;;;
2019/12/11 06:37:19;;;;;;;9.5;5.1;;;;;;;;;;;;;
2019/12/11 06:39:44;;;;;;;7.6;5;;;;;;;;;;;;;
2019/12/11 06:42:09;;;;;;;10.7;5.7;;;;;;;;;;;;;
2019/12/11 06:44:34;;;;;;;10.4;5.7;;;;;;;;;;;;;
2019/12/11 06:46:59;;;;;;;10.3;5.6;;;;;;;;;;;;;
2019/12/11 06:49:25;;;;;;;10.1;5.5;;;;;;;;;;;;;
2019/12/11 06:51:50;;;;;;;9.5;5.1;;;;;;;;;;;;;
2019/12/11 06:54:15;;;;;;;10.5;5.9;;;;;;;;;;;;;
2019/12/11 06:56:41;;;;;;;10.5;5.5;;;;;;;;;;;;;
2019/12/11 06:59:05;;;;;;;15.2;6.5;;;;;;;;;;;;;
2019/12/11 07:01:30;;;;;;;12.6;6.2;;;;;;;;;;;;;
2019/12/11 07:03:55;;;;;;;12.1;6.2;;;;;;;;;;;;;
2019/12/11 07:06:21;;;;;;;10.9;6.7;;;;;;;;;;;;;
2019/12/11 07:08:46;;;;;;;13.2;6.6;;;;;;;;;;;;;
2019/12/11 07:11:11;;;;;;;14.6;6.7;;;;;;;;;;;;;
2019/12/11 07:13:36;;;;;;;11.9;7.1;;;;;;;;;;;;;
2019/12/11 07:18:34;;;;;;;11.6;6.4;;;;;;;;;;;;;
2019/12/11 07:20:51;;;;;;;12.3;6.6;;;;;;;;;;;;;
2019/12/11 07:23:16;;;;;;;15.6;7.4;;;;;;;;;;;;;
2019/12/11 07:25:41;;;;;;;11.4;6.7;;;;;;;;;;;;;
2019/12/11 07:28:06;;;;;;;11.5;6.6;;;;;;;;;;;;;
2019/12/11 07:30:32;;;;;;;11.6;6;;;;;;;;;;;;;
2019/12/11 07:32:57;;;;;;;11;5.9;;;;;;;;;;;;;
2019/12/11 07:35:22;;;;;;;14.2;6.4;;;;;;;;;;;;;
2019/12/11 07:37:47;;;;;;;12.2;5.9;;;;;;;;;;;;;
2019/12/11 07:40:12;;;;;;;12.2;6.8;;;;;;;;;;;;;
2019/12/11 07:42:37;;;;;;;12.1;6.3;;;;;;;;;;;;;
2019/12/11 07:45:02;;;;;;;10.8;6.1;;;;;;;;;;;;;
2019/12/11 07:47:27;;;;;;;15.6;6.5;;;;;;;;;;;;;
2019/12/11 07:49:52;;;;;;;13.7;6.7;;;;;;;;;;;;;
2019/12/11 07:52:17;;;;;;;12.2;6.3;;;;;;;;;;;;;
2019/12/11 07:54:42;;;;;;;11.6;6.2;;;;;;;;;;;;;
2019/12/11 07:57:07;;;;;;;12.1;6.7;;;;;;;;;;;;;
2019/12/11 07:59:33;;;;;;;11.2;6.7;;;;;;;;;;;;;
2019/12/11 08:01:58;;;;;;;14.7;7.2;;;;;;;;;;;;;
2019/12/11 08:04:23;;;;;;;14.6;6.8;;;;;;;;;;;;;
2019/12/11 08:06:48;;;;;;;11.6;6.6;;;;;;;;;;;;;
2019/12/11 08:09:13;;;;;;;13.2;6.3;;;;;;;;;;;;;
2019/12/11 08:11:38;;;;;;;13.1;6.7;;;;;;;;;;;;;
2019/12/11 08:14:03;;;;;;;15.8;7.2;;;;;;;;;;;;;
2019/12/11 08:16:28;;;;;;;13.4;6.9;;;;;;;;;;;;;
2019/12/11 08:18:53;;;;;;;14.5;7.4;;;;;;;;;;;;;
2019/12/11 08:21:18;;;;;;;12;6.7;;;;;;;;;;;;;
2019/12/11 08:23:43;;;;;;;18.5;8.4;;;;;;;;;;;;;
2019/12/11 08:26:09;;;;;;;15.3;8.5;;;;;;;;;;;;;
2019/12/11 08:28:34;;;;;;;11.9;7.8;;;;;;;;;;;;;
2019/12/11 08:30:59;;;;;;;11.2;7;;;;;;;;;;;;;
2019/12/11 08:33:25;;;;;;;9.9;6.7;;;;;;;;;;;;;
2019/12/11 08:35:49;;;;;;;12;6.8;;;;;;;;;;;;;
2019/12/11 08:38:14;;;;;;;11.8;6.4;;;;;;;;;;;;;
2019/12/11 08:40:40;;;;;;;11.1;6.2;;;;;;;;;;;;;
2019/12/11 08:43:05;;;;;;;12.1;6.1;;;;;;;;;;;;;
2019/12/11 08:45:30;;;;;;;9.4;5.3;;;;;;;;;;;;;
2019/12/11 08:47:55;;;;;;;9.1;5.3;;;;;;;;;;;;;
2019/12/11 08:50:20;;;;;;;8.4;4.8;;;;;;;;;;;;;
2019/12/11 08:52:45;;;;;;;8.1;5.2;;;;;;;;;;;;;
2019/12/11 09:00:00;;;;;;;8.4;4.7;;;;;;;;;;;;;
2019/12/11 09:02:25;;;;;;;7.3;4.6;;;;;;;;;;;;;
2019/12/11 09:04:51;;;;;;;10.4;5.4;;;;;;;;;;;;;
2019/12/11 09:07:18;;;;;;;9.6;4.9;;;;;;;;;;;;;
2019/12/11 09:09:41;;;;;;;9;4.7;;;;;;;;;;;;;
2019/12/11 09:12:06;;;;;;;8.7;5.4;;;;;;;;;;;;;
2019/12/11 09:14:31;;;;;;;8.5;4.9;;;;;;;;;;;;;
2019/12/11 09:16:56;;;;;;;8.1;4.7;;;;;;;;;;;;;
2019/12/11 09:19:21;;;;;;;7;4.6;;;;;;;;;;;;;
2019/12/11 09:21:46;;;;;;;7.3;4.4;;;;;;;;;;;;;
2019/12/11 09:24:11;;;;;;;9.1;4.5;;;;;;;;;;;;;
2019/12/11 09:26:37;;;;;;;9.6;4.9;;;;;;;;;;;;;
2019/12/11 09:30:05;;;;;;;8.6;4.7;;;;;;;;;;;;;
2019/12/11 09:31:34;;;;;;;8.4;4.4;;;;;;;;;;;;;
2019/12/11 09:34:13;;;;;;;9.7;4.9;;;;;;;;;;;;;
2019/12/11 09:36:17;;;;;;;10.9;5.5;;;;;;;;;;;;;
2019/12/11 09:38:42;;;;;;;12.6;6.4;;;;;;;;;;;;;
2019/12/11 09:41:07;;;;;;;11.3;6;;;;;;;;;;;;;
2019/12/11 09:43:32;;;;;;;10.6;5.8;;;;;;;;;;;;;
2019/12/11 09:45:57;;;;;;;11.3;6.6;;;;;;;;;;;;;
2019/12/11 09:48:22;;;;;;;8.5;5.6;;;;;;;;;;;;;
2019/12/11 09:50:47;;;;;;;9.5;5.1;;;;;;;;;;;;;
2019/12/11 09:53:12;;;;;;;11;5.8;;;;;;;;;;;;;
2019/12/11 09:55:38;;;;;;;9.6;5.2;;;;;;;;;;;;;
2019/12/11 09:58:03;;;;;;;8.1;4.8;;;;;;;;;;;;;
2019/12/11 10:00:28;;;;;;;7.2;4.8;;;;;;;;;;;;;
2019/12/11 10:02:53;;;;;;;7.8;4.6;;;;;;;;;;;;;
2019/12/11 10:05:18;;;;;;;9.3;5.3;;;;;;;;;;;;;
2019/12/11 10:07:43;;;;;;;8;5.2;;;;;;;;;;;;;
2019/12/11 10:10:09;;;;;;;10.4;5.3;;;;;;;;;;;;;
2019/12/11 10:12:34;;;;;;;10.5;5.3;;;;;;;;;;;;;
2019/12/11 10:14:59;;;;;;;9.2;5.2;;;;;;;;;;;;;
2019/12/11 10:17:24;;;;;;;7.8;4.9;;;;;;;;;;;;;
2019/12/11 10:19:49;;;;;;;8.9;5.1;;;;;;;;;;;;;
2019/12/11 10:22:14;;;;;;;9.1;5.1;;;;;;;;;;;;;
2019/12/11 10:24:39;;;;;;;10.6;5.3;;;;;;;;;;;;;
2019/12/11 10:27:04;;;;;;;7.7;4.9;;;;;;;;;;;;;
2019/12/11 10:29:29;;;;;;;9.7;4.9;;;;;;;;;;;;;
2019/12/11 10:31:54;;;;;;;8.8;5.3;;;;;;;;;;;;;
2019/12/11 10:34:19;;;;;;;8.8;5.5;;;;;;;;;;;;;
2019/12/11 10:36:44;;;;;;;9.2;5.4;;;;;;;;;;;;;
2019/12/11 10:39:10;;;;;;;8;5.4;;;;;;;;;;;;;
2019/12/11 10:41:35;;;;;;;7.5;5.3;;;;;;;;;;;;;
2019/12/11 10:44:00;;;;;;;8.1;5.2;;;;;;;;;;;;;
2019/12/11 10:46:25;;;;;;;10.8;5.3;;;;;;;;;;;;;
2019/12/11 10:48:50;;;;;;;9.4;5;;;;;;;;;;;;;
2019/12/11 10:51:15;;;;;;;8.2;5;;;;;;;;;;;;;
2019/12/11 10:53:40;;;;;;;8.6;5;;;;;;;;;;;;;
2019/12/11 10:56:05;;;;;;;7.6;5;;;;;;;;;;;;;
2019/12/11 10:58:30;;;;;;;7.4;5.1;;;;;;;;;;;;;
2019/12/11 11:02:06;;;;;;;11.4;5.2;;;;;;;;;;;;;
2019/12/11 11:03:26;;;;;;;7.7;4.7;;;;;;;;;;;;;
2019/12/11 11:08:21;;;;;;;10.2;4.9;;;;;;;;;;;;;
2019/12/11 11:10:36;;;;;;;9.4;5.5;;;;;;;;;;;;;
2019/12/11 11:13:01;;;;;;;8.5;5.3;;;;;;;;;;;;;
2019/12/11 11:15:26;;;;;;;8.4;5.2;;;;;;;;;;;;;
2019/12/11 11:17:51;;;;;;;8.3;4.8;;;;;;;;;;;;;
2019/12/11 11:20:16;;;;;;;8.1;4.8;;;;;;;;;;;;;
2019/12/11 11:22:41;;;;;;;7.3;4.4;;;;;;;;;;;;;
2019/12/11 11:25:06;;;;;;;6.5;4.1;;;;;;;;;;;;;
2019/12/11 11:27:31;;;;;;;7.7;4.1;;;;;;;;;;;;;
2019/12/11 11:29:57;;;;;;;8.4;4.6;;;;;;;;;;;;;
2019/12/11 11:32:22;;;;;;;9.5;4.9;;;;;;;;;;;;;
2019/12/11 11:34:47;;;;;;;7.7;4.3;;;;;;;;;;;;;
2019/12/11 11:37:12;;;;;;;9.2;4.4;;;;;;;;;;;;;
2019/12/11 11:39:37;;;;;;;7.6;4.4;;;;;;;;;;;;;
2019/12/11 11:42:02;;;;;;;7.7;4.6;;;;;;;;;;;;;
2019/12/11 11:44:27;;;;;;;8.5;4.7;;;;;;;;;;;;;
2019/12/11 11:46:52;;;;;;;9.1;4.8;;;;;;;;;;;;;
2019/12/11 11:49:18;;;;;;;9;4.2;;;;;;;;;;;;;
2019/12/11 11:51:43;;;;;;;7.3;4.2;;;;;;;;;;;;;
2019/12/11 11:54:08;;;;;;;6.5;4;;;;;;;;;;;;;
2019/12/11 11:56:33;;;;;;;8.1;4.5;;;;;;;;;;;;;
2019/12/11 11:58:58;;;;;;;9.2;4.5;;;;;;;;;;;;;
2019/12/11 12:01:23;;;;;;;7.5;4.1;;;;;;;;;;;;;
2019/12/11 12:03:48;;;;;;;8.2;4.8;;;;;;;;;;;;;
2019/12/11 12:06:13;;;;;;;9.3;5.1;;;;;;;;;;;;;
2019/12/11 12:08:38;;;;;;;9;4.7;;;;;;;;;;;;;
2019/12/11 12:11:03;;;;;;;8.3;5;;;;;;;;;;;;;
2019/12/11 12:13:29;;;;;;;7.9;4.4;;;;;;;;;;;;;
2019/12/11 12:15:54;;;;;;;8;4.6;;;;;;;;;;;;;
2019/12/11 12:18:19;;;;;;;8.9;4.9;;;;;;;;;;;;;
2019/12/11 12:20:44;;;;;;;7.3;4.9;;;;;;;;;;;;;
2019/12/11 12:23:09;;;;;;;9.1;5;;;;;;;;;;;;;
2019/12/11 12:25:35;;;;;;;8.1;4.2;;;;;;;;;;;;;
2019/12/11 12:27:59;;;;;;;7.7;4.3;;;;;;;;;;;;;
2019/12/11 12:30:24;;;;;;;8.8;4.3;;;;;;;;;;;;;
2019/12/11 12:32:49;;;;;;;8.6;4.2;;;;;;;;;;;;;
2019/12/11 12:35:15;;;;;;;7.8;4.1;;;;;;;;;;;;;
2019/12/11 12:37:39;;;;;;;5.9;3.9;;;;;;;;;;;;;
2019/12/11 12:40:05;;;;;;;6.7;4.1;;;;;;;;;;;;;
2019/12/11 12:42:30;;;;;;;7.8;4;;;;;;;;;;;;;
2019/12/11 12:44:55;;;;;;;7.6;4.1;;;;;;;;;;;;;
2019/12/11 12:47:58;;;;;;;7.8;4.1;;;;;;;;;;;;;
2019/12/11 12:49:45;;;;;;;8.1;4.3;;;;;;;;;;;;;
2019/12/11 12:52:10;;;;;;;9.5;4.4;;;;;;;;;;;;;
2019/12/11 12:54:35;;;;;;;6.7;4.2;;;;;;;;;;;;;
2019/12/11 12:57:00;;;;;;;9.2;4.8;;;;;;;;;;;;;
2019/12/11 12:59:25;;;;;;;8.2;4.8;;;;;;;;;;;;;
2019/12/11 13:01:50;;;;;;;8.5;4.8;;;;;;;;;;;;;
2019/12/11 13:04:16;;;;;;;7.4;4.8;;;;;;;;;;;;;
2019/12/11 13:06:41;;;;;;;7.5;4.3;;;;;;;;;;;;;
2019/12/11 13:09:06;;;;;;;7.2;4.5;;;;;;;;;;;;;
2019/12/11 13:11:33;;;;;;;7.8;4.2;;;;;;;;;;;;;
2019/12/11 13:13:58;;;;;;;7.6;4.2;;;;;;;;;;;;;
2019/12/11 13:16:24;;;;;;;6.4;4;;;;;;;;;;;;;
2019/12/11 13:18:48;;;;;;;7.5;4.6;;;;;;;;;;;;;
2019/12/11 13:21:13;;;;;;;7.1;4.4;;;;;;;;;;;;;
2019/12/11 13:23:39;;;;;;;8.6;4.4;;;;;;;;;;;;;
2019/12/11 13:26:04;;;;;;;7.9;4.4;;;;;;;;;;;;;
2019/12/11 13:28:29;;;;;;;7;4.1;;;;;;;;;;;;;
2019/12/11 13:30:54;;;;;;;7.5;4.9;;;;;;;;;;;;;
2019/12/11 13:33:19;;;;;;;8.6;4.9;;;;;;;;;;;;;
2019/12/11 13:35:44;;;;;;;9.1;5;;;;;;;;;;;;;
2019/12/11 13:38:11;;;;;;;9;5.1;;;;;;;;;;;;;
2019/12/11 13:40:36;;;;;;;8;4.8;;;;;;;;;;;;;
2019/12/11 13:43:01;;;;;;;7.8;5.4;;;;;;;;;;;;;
2019/12/11 13:45:26;;;;;;;9;4.9;;;;;;;;;;;;;
2019/12/11 13:47:51;;;;;;;6.3;4.8;;;;;;;;;;;;;
2019/12/11 13:50:16;;;;;;;7.9;4.6;;;;;;;;;;;;;
2019/12/11 13:52:41;;;;;;;8.1;5.1;;;;;;;;;;;;;
2019/12/11 13:55:06;;;;;;;8;5;;;;;;;;;;;;;
2019/12/11 13:57:32;;;;;;;8.2;5;;;;;;;;;;;;;
2019/12/11 13:59:57;;;;;;;9.4;5.2;;;;;;;;;;;;;
2019/12/11 14:02:30;;;;;;;7.8;5.3;;;;;;;;;;;;;
2019/12/11 14:04:47;;;;;;;9.7;5.9;;;;;;;;;;;;;
2019/12/11 14:07:12;;;;;;;9.2;5.3;;;;;;;;;;;;;
2019/12/11 14:09:37;;;;;;;8.6;5.1;;;;;;;;;;;;;
2019/12/11 14:12:03;;;;;;;7.2;4.3;;;;;;;;;;;;;
2019/12/11 14:14:27;;;;;;;7.2;4.7;;;;;;;;;;;;;
2019/12/11 14:16:54;;;;;;;6.6;4.4;;;;;;;;;;;;;
2019/12/11 14:19:17;;;;;;;8.1;5.1;;;;;;;;;;;;;
2019/12/11 14:21:45;;;;;;;7.3;4.7;;;;;;;;;;;;;
2019/12/11 14:24:14;;;;;;;9.9;4.9;;;;;;;;;;;;;
2019/12/11 14:26:33;;;;;;;10.3;5.5;;;;;;;;;;;;;
2019/12/11 14:28:59;;;;;;;8.7;5;;;;;;;;;;;;;
2019/12/11 14:31:26;;;;;;;8.4;5.3;;;;;;;;;;;;;
2019/12/11 14:33:48;;;;;;;10.2;5;;;;;;;;;;;;;
2019/12/11 14:36:13;;;;;;;11.4;5.5;;;;;;;;;;;;;
2019/12/11 14:38:38;;;;;;;9.4;5.3;;;;;;;;;;;;;
2019/12/11 14:41:04;;;;;;;9.1;6.1;;;;;;;;;;;;;
2019/12/11 14:43:29;;;;;;;8.9;5.9;;;;;;;;;;;;;
2019/12/11 14:45:54;;;;;;;11.5;6.4;;;;;;;;;;;;;
2019/12/11 14:48:19;;;;;;;9.5;6.3;;;;;;;;;;;;;
2019/12/11 14:50:44;;;;;;;10.4;6.7;;;;;;;;;;;;;
2019/12/11 14:53:09;;;;;;;11;6.4;;;;;;;;;;;;;
2019/12/11 14:55:34;;;;;;;9.2;6.1;;;;;;;;;;;;;
2019/12/11 14:57:59;;;;;;;9.5;5.7;;;;;;;;;;;;;
2019/12/11 15:00:25;;;;;;;8.6;5.5;;;;;;;;;;;;;
2019/12/11 15:02:50;;;;;;;7.7;5.6;;;;;;;;;;;;;
2019/12/11 15:05:14;;;;;;;9;5.4;;;;;;;;;;;;;
2019/12/11 15:07:40;;;;;;;9.8;5.4;;;;;;;;;;;;;
2019/12/11 15:10:05;;;;;;;12;5.9;;;;;;;;;;;;;
2019/12/11 15:12:30;;;;;;;10.1;6.1;;;;;;;;;;;;;
2019/12/11 15:14:55;;;;;;;11.7;7.5;;;;;;;;;;;;;
2019/12/11 15:17:25;;;;;;;12.3;7.6;;;;;;;;;;;;;
2019/12/11 15:19:51;;;;;;;11;6.2;;;;;;;;;;;;;
2019/12/11 15:22:16;;;;;;;11.3;6.3;;;;;;;;;;;;;
2019/12/11 15:24:41;;;;;;;20.7;11.3;;;;;;;;;;;;;
2019/12/11 15:27:06;;;;;;;13.1;7.2;;;;;;;;;;;;;
2019/12/11 15:29:31;;;;;;;10.1;7.3;;;;;;;;;;;;;
2019/12/11 15:32:07;;;;;;;16.4;12.7;;;;;;;;;;;;;
2019/12/11 15:34:28;;;;;;;14.5;11.3;;;;;;;;;;;;;
2019/12/11 15:36:46;;;;;;;11.5;6;;;;;;;;;;;;;
2019/12/11 15:39:11;;;;;;;10.4;6.2;;;;;;;;;;;;;
2019/12/11 15:41:37;;;;;;;9;5.7;;;;;;;;;;;;;
2019/12/11 15:44:02;;;;;;;8.4;5.9;;;;;;;;;;;;;
2019/12/11 15:46:27;;;;;;;8.4;5.6;;;;;;;;;;;;;
2019/12/11 15:49:03;;;;;;;8.9;5.8;;;;;;;;;;;;;
2019/12/11 15:51:17;;;;;;;9.1;5.3;;;;;;;;;;;;;
2019/12/11 15:53:42;;;;;;;8.3;5.5;;;;;;;;;;;;;
2019/12/11 15:56:07;;;;;;;7.8;5.1;;;;;;;;;;;;;
2019/12/11 15:58:32;;;;;;;10.4;5.5;;;;;;;;;;;;;
2019/12/11 16:00:59;;;;;;;12.3;6.1;;;;;;;;;;;;;
2019/12/11 16:03:23;;;;;;;10.5;6.2;;;;;;;;;;;;;
2019/12/11 16:05:48;;;;;;;9.5;6;;;;;;;;;;;;;
2019/12/11 16:08:13;;;;;;;11.6;6.1;;;;;;;;;;;;;
2019/12/11 16:10:38;;;;;;;10.1;6.5;;;;;;;;;;;;;
2019/12/11 16:13:03;;;;;;;10.8;6.5;;;;;;;;;;;;;
2019/12/11 16:15:28;;;;;;;11.9;6.6;;;;;;;;;;;;;
2019/12/11 16:17:54;;;;;;;11.9;6.5;;;;;;;;;;;;;
2019/12/11 16:20:19;;;;;;;7.6;5.7;;;;;;;;;;;;;
2019/12/11 16:25:09;;;;;;;9.3;6.1;;;;;;;2.22;82.12305;951.9595;;;;
2019/12/11 16:27:34;;;;;;;9.6;6.3;;;;;;;2.1;83.00391;951.8536;;;;
2019/12/11 16:29:59;;;;;;;9.9;6.4;;;;;;;1.95;84.44043;951.8172;;;;
2019/12/11 16:32:24;;;;;;;9.7;6.5;;;;;;;2.06;83.10938;951.7965;;;;
2019/12/11 16:34:49;;;;;;;12.6;7.5;;;;;;;2.16;82.50684;951.7972;;;;
2019/12/11 16:37:14;;;;;;;11.1;6.9;;;;;;;2.24;82.17188;951.7967;;;;
2019/12/11 16:39:39;;;;;;;9.6;6.4;;;;;;;2.16;81.91016;951.7708;;;;
2019/12/11 16:42:04;;;;;;;10.9;6.7;;;;;;;2.08;83.26953;951.8744;;;;
2019/12/11 16:44:30;;;;;;;10.1;6.1;;;;;;;2.02;82.64746;952.0239;;;;
2019/12/11 16:46:55;;;;;;;8.6;5.7;;;;;;;2.07;82.12793;952.0508;;;;
2019/12/11 16:49:20;;;;;;;8.6;5.2;;;;;;;2.22;81.33301;951.9442;;;;
2019/12/11 16:51:45;;;;;;;7.3;4.7;;;;;;;2.43;80.79688;952.0082;;;;
2019/12/11 16:54:10;;;;;;;9.2;5.2;;;;;;;2.44;80.30176;952.0776;;;;
2019/12/11 16:56:36;;;;;;;8;4.7;;;;;;;2.4;79.85645;952.0218;;;;
2019/12/11 16:59:01;;;;;;;9;5.2;;;;;;;2.38;79.65918;952.0497;;;;
2019/12/11 17:01:26;;;;;;;9.6;5;;;;;;;2.36;79.40625;952.0151;;;;
2019/12/11 17:03:52;;;;;;;6.6;4.6;;;;;;;2.47;79.86816;952.0596;;;;
2019/12/11 17:06:17;;;;;;;7.1;4.8;;;;;;;2.65;79.4834;952.1121;;;;
2019/12/11 17:08:42;;;;;;;7.4;5.2;;;;;;;2.59;79.55078;952.0511;;;;
2019/12/11 17:11:07;;;;;;;8.7;5.2;;;;;;;2.5;79.26367;952.0928;;;;
2019/12/11 17:13:33;;;;;;;8.6;5.2;;;;;;;2.51;79.1875;952.1121;;;;
2019/12/11 17:15:58;;;;;;;9.7;5.8;;;;;;;2.44;80.19043;952.0883;;;;
2019/12/11 17:18:26;;;;;;;9.3;5.3;;;;;;;2.44;78.04492;952.2161;;;;
2019/12/11 17:20:52;;;;;;;9.9;5.5;;;;;;;2.6;78.92188;952.2742;;;;
2019/12/11 17:23:22;;;;;;;9.9;6.7;;;;;;;2.53;78.56934;952.2684;;;;
2019/12/11 17:25:44;;;;;;;8.4;6.1;;;;;;;2.53;78.88574;952.2468;;;;
2019/12/11 17:28:12;;;;;;;10.4;6.8;;;;;;;2.73;78.58398;952.2335;;;;
2019/12/11 17:30:33;;;;;;;9;6.4;;;;;;;2.71;79.40527;952.0933;;;;
2019/12/11 17:32:59;;;;;;;10.9;6.7;;;;;;;2.58;79.08594;952.0901;;;;
2019/12/11 17:35:24;;;;;;;11;6.7;;;;;;;2.59;79.7998;952.027;;;;
2019/12/11 17:37:49;;;;;;;11.2;6.5;;;;;;;2.63;79.58203;952.0645;;;;
2019/12/11 17:40:14;;;;;;;11.4;6.8;;;;;;;2.53;80.51074;952.0544;;;;
2019/12/11 17:42:39;;;;;;;12.1;6.9;;;;;;;2.65;80.20703;952.0678;;;;
2019/12/11 17:45:04;;;;;;;11.6;7.3;;;;;;;2.67;80.40234;952.0744;;;;
2019/12/11 17:47:29;;;;;;;11.1;7;;;;;;;2.66;80.79785;952.0388;;;;
2019/12/11 17:49:54;;;;;;;12.4;7.3;;;;;;;2.73;80.17871;952.0203;;;;
2019/12/11 17:52:20;;;;;;;12.7;6.7;;;;;;;2.72;80.27734;952.0525;;;;
2019/12/11 17:54:45;;;;;;;11.4;7;;;;;;;2.7;80.54492;952.098;;;;
2019/12/11 17:57:10;;;;;;;12.4;7.7;;;;;;;2.66;80.76367;952.1067;;;;